Time;durP1;ratioP1;P1;durP2;ratioP2;P2;SDS_P1;SDS_P2;PMS_P1;PMS_P2;Temp;Humidity;BMP_temperature;BMP_pressure;BME280_temperature;BME280_humidity;BME280_pressure;Samples;Min_cycle;Max_cycle;Signal;HPM_P1;HPM_P2
2022/05/12 00:00:16;;;;;;;4.50;3.80;;;;;;;20.26;39.69;101470.34;5110953;27;20988;-77
2022/05/12 00:02:44;;;;;;;6.75;3.88;;;;;;;20.25;39.35;101474.06;5094255;28;20469;-76
2022/05/12 00:05:11;;;;;;;5.97;3.90;;;;;;;20.19;39.63;101473.06;5101865;28;20949;-76
2022/05/12 00:07:38;;;;;;;4.90;3.47;;;;;;;20.15;39.73;101476.41;5088519;28;20931;-75
2022/05/12 00:10:08;;;;;;;5.32;3.38;;;;;;;20.13;39.35;101486.56;5101374;28;20499;-76
2022/05/12 00:12:35;;;;;;;5.03;3.40;;;;;;;20.05;39.47;101483.06;5089403;28;20515;-76
2022/05/12 00:15:02;;;;;;;4.85;3.30;;;;;;;20.03;39.37;101470.88;5086827;28;20432;-75
2022/05/12 00:17:30;;;;;;;4.40;3.10;;;;;;;19.97;39.35;101482.47;5103269;28;20412;-76
2022/05/12 00:19:57;;;;;;;4.32;3.30;;;;;;;19.94;39.37;101478.38;5089894;28;20432;-75
2022/05/12 00:22:24;;;;;;;4.88;3.13;;;;;;;19.90;39.35;101481.69;5096538;28;20422;-75
2022/05/12 00:24:51;;;;;;;4.50;3.30;;;;;;;19.86;39.35;101482.13;5086760;28;20422;-75
2022/05/12 00:27:18;;;;;;;4.72;3.50;;;;;;;19.84;39.38;101483.38;5102238;28;20422;-75
2022/05/12 00:29:45;;;;;;;4.87;3.10;;;;;;;19.81;39.41;101481.94;5087193;28;20425;-75
2022/05/12 00:32:12;;;;;;;5.20;3.35;;;;;;;19.79;39.59;101491.25;5100350;28;20424;-75
2022/05/12 00:35:24;;;;;;;5.53;3.20;;;;;;;19.70;39.43;101482.56;5087670;27;20406;-78
2022/05/12 00:37:51;;;;;;;3.88;3.08;;;;;;;19.68;39.55;101484.66;5054909;28;20422;-75
2022/05/12 00:40:18;;;;;;;3.85;3.15;;;;;;;19.68;39.54;101490.84;5077537;28;20431;-76
2022/05/12 00:43:00;;;;;;;7.30;3.28;;;;;;;19.61;39.65;101494.63;5067578;28;20427;-75
2022/05/12 00:45:28;;;;;;;3.92;3.45;;;;;;;19.59;39.61;101492.13;5074490;28;20426;-76
2022/05/12 00:47:55;;;;;;;5.15;3.22;;;;;;;19.52;39.64;101491.31;5080970;28;20545;-75
2022/05/12 00:50:29;;;;;;;4.70;3.25;;;;;;;19.43;39.95;101493.41;5073119;28;20493;-74
2022/05/12 00:52:59;;;;;;;4.18;3.05;;;;;;;19.39;39.74;101492.16;5072665;28;20427;-74
2022/05/12 00:55:39;;;;;;;4.45;3.00;;;;;;;19.39;39.88;101491.31;5082690;28;20414;-76
2022/05/12 00:58:10;;;;;;;3.95;3.40;;;;;;;19.40;39.97;101490.31;5057151;28;20915;-74
2022/05/12 01:00:37;;;;;;;5.55;3.28;;;;;;;19.37;39.82;101491.53;5076155;28;20417;-74
2022/05/12 01:03:10;;;;;;;5.53;3.33;;;;;;;19.39;39.95;101494.00;5066729;28;20511;-74
2022/05/12 01:05:39;;;;;;;3.63;3.28;;;;;;;19.39;39.95;101497.56;5066092;28;20416;-74
2022/05/12 01:08:09;;;;;;;5.07;3.03;;;;;;;19.34;40.04;101491.97;5081217;28;20420;-75
2022/05/12 01:10:39;;;;;;;3.80;3.20;;;;;;;19.31;40.13;101495.06;5075842;28;20454;-74
2022/05/12 01:13:06;;;;;;;4.27;3.20;;;;;;;19.26;40.20;101500.25;5072338;28;20419;-76
2022/05/12 01:15:33;;;;;;;5.22;3.00;;;;;;;19.27;40.12;101493.84;5066438;28;20775;-73
2022/05/12 01:18:06;;;;;;;3.97;3.10;;;;;;;19.28;40.06;101496.31;5081846;28;20419;-75
2022/05/12 01:20:35;;;;;;;4.18;3.20;;;;;;;19.23;40.25;101498.81;5074748;28;20406;-73
2022/05/12 01:25:13;;;;;;;3.95;3.42;;;;;;;19.25;40.27;101501.28;5111863;27;20827;-76
2022/05/12 01:27:42;;;;;;;4.13;3.25;;;;;;;19.28;40.08;101501.69;5086540;28;20426;-74
2022/05/12 01:30:11;;;;;;;4.57;2.90;;;;;;;19.26;40.21;101502.94;5093424;28;20420;-76
2022/05/12 01:32:38;;;;;;;3.33;3.03;;;;;;;19.23;40.10;101504.19;5098376;28;20413;-74
2022/05/12 01:35:06;;;;;;;6.22;3.22;;;;;;;19.23;40.21;101501.50;5111221;28;20417;-75
2022/05/12 01:37:37;;;;;;;3.75;3.10;;;;;;;19.25;40.34;101504.78;5092452;28;20414;-76
2022/05/12 01:40:05;;;;;;;4.00;3.20;;;;;;;19.25;40.29;101501.28;5071983;28;20420;-75
2022/05/12 01:42:33;;;;;;;3.90;3.28;;;;;;;19.21;40.36;101498.19;5098300;28;20418;-74
2022/05/12 01:45:00;;;;;;;4.33;3.33;;;;;;;19.22;40.35;101497.13;5097630;28;20439;-72
2022/05/12 01:47:27;;;;;;;4.97;3.28;;;;;;;19.19;40.26;101505.59;5089144;28;20429;-75
2022/05/12 01:49:54;;;;;;;4.80;3.47;;;;;;;19.20;40.19;101495.72;5103570;28;20422;-75
2022/05/12 01:54:53;;;;;;;4.85;3.42;;;;;;;19.07;40.52;101497.38;5089228;27;20924;-76
2022/05/12 01:57:22;;;;;;;4.35;3.15;;;;;;;19.03;40.49;101500.66;5071657;28;20868;-74
2022/05/12 01:59:49;;;;;;;3.90;3.20;;;;;;;19.04;40.59;101505.84;5072215;28;20515;-76
2022/05/12 02:02:16;;;;;;;4.40;3.30;;;;;;;19.02;40.56;101502.53;5080603;28;20940;-75
2022/05/12 02:04:43;;;;;;;3.70;3.10;;;;;;;19.01;40.66;101506.22;5075985;28;20931;-76
2022/05/12 02:07:11;;;;;;;5.18;3.45;;;;;;;19.00;40.65;101511.84;5073445;28;20424;-75
2022/05/12 02:09:38;;;;;;;3.42;3.00;;;;;;;18.96;40.80;101508.75;5082595;28;20865;-76
2022/05/12 02:12:08;;;;;;;4.47;3.38;;;;;;;18.96;40.79;101511.44;5070592;28;20501;-74
2022/05/12 02:14:35;;;;;;;4.97;3.30;;;;;;;18.96;40.74;101516.81;5082041;28;20434;-76
2022/05/12 02:17:02;;;;;;;4.43;3.20;;;;;;;18.93;40.82;101517.19;5074256;28;20427;-75
2022/05/12 02:19:30;;;;;;;5.50;3.33;;;;;;;18.91;41.08;101514.72;5082435;28;20418;-75
2022/05/12 02:22:00;;;;;;;3.37;3.07;;;;;;;18.87;41.23;101524.22;5068101;28;20426;-75
2022/05/12 02:24:27;;;;;;;4.72;3.35;;;;;;;18.86;41.17;101524.44;5077085;28;20431;-75
2022/05/12 02:26:56;;;;;;;4.68;3.33;;;;;;;18.80;41.33;101518.00;5077030;28;20421;-76
2022/05/12 02:29:45;;;;;;;4.53;3.20;;;;;;;18.74;41.05;101518.78;5066383;28;20404;-75
2022/05/12 02:32:12;;;;;;;5.53;3.50;;;;;;;18.72;41.19;101524.38;5066617;28;20419;-75
2022/05/12 02:34:39;;;;;;;3.63;3.33;;;;;;;18.70;41.31;101518.38;5066801;28;20416;-76
2022/05/12 02:37:08;;;;;;;5.82;3.30;;;;;;;18.65;41.59;101518.16;5063476;28;20424;-74
2022/05/12 02:39:40;;;;;;;4.40;3.50;;;;;;;18.60;41.65;101517.97;5064946;28;20432;-74
2022/05/12 02:42:09;;;;;;;4.60;3.40;;;;;;;18.58;41.67;101524.56;5051001;28;20849;-74
2022/05/12 02:44:37;;;;;;;5.63;4.03;;;;;;;18.58;41.95;101528.06;5066388;28;20430;-75
2022/05/12 02:47:08;;;;;;;4.53;3.90;;;;;;;18.59;41.83;101531.59;5066237;28;20420;-75
2022/05/12 02:49:35;;;;;;;5.45;3.80;;;;;;;18.57;41.77;101528.28;5065625;28;20460;-75
2022/05/12 02:52:02;;;;;;;4.50;3.57;;;;;;;18.54;41.98;101529.50;5064257;28;20430;-75
2022/05/12 02:54:29;;;;;;;7.27;3.80;;;;;;;18.56;41.97;101526.63;5056600;28;20432;-75
2022/05/12 02:56:56;;;;;;;6.70;3.90;;;;;;;18.51;42.13;101525.38;5066210;28;20422;-76
2022/05/12 02:59:24;;;;;;;7.00;3.70;;;;;;;18.47;42.20;101520.59;5064766;28;20430;-74
2022/05/12 03:01:50;;;;;;;5.40;4.00;;;;;;;18.47;42.12;101528.66;5063755;28;20428;-74
2022/05/12 03:04:19;;;;;;;5.10;3.60;;;;;;;18.43;42.37;101538.97;5065935;28;20439;-75
2022/05/12 03:06:46;;;;;;;4.37;3.73;;;;;;;18.41;42.39;101538.34;5064923;28;20423;-74
2022/05/12 03:09:13;;;;;;;6.23;3.80;;;;;;;18.44;41.96;101531.72;5065827;28;20469;-75
2022/05/12 03:11:40;;;;;;;6.03;3.75;;;;;;;18.43;42.16;101533.59;5063885;28;20774;-75
2022/05/12 03:14:07;;;;;;;5.13;3.47;;;;;;;18.46;41.96;101538.56;5064689;28;20420;-75
2022/05/12 03:16:34;;;;;;;5.25;3.63;;;;;;;18.45;42.55;101536.91;5066005;28;20428;-74
2022/05/12 03:19:01;;;;;;;5.50;3.88;;;;;;;18.46;42.45;101535.88;5065639;28;20412;-74
2022/05/12 03:21:30;;;;;;;5.93;3.65;;;;;;;18.49;42.13;101543.53;5063827;28;20420;-76
2022/05/12 03:23:57;;;;;;;9.98;4.57;;;;;;;18.53;42.11;101546.66;5064644;28;20423;-75
2022/05/12 03:26:24;;;;;;;7.13;4.00;;;;;;;18.56;42.07;101546.22;5063117;28;20748;-74
2022/05/12 03:28:51;;;;;;;8.10;4.10;;;;;;;18.58;42.24;101552.22;5065280;28;20436;-74
2022/05/12 03:31:18;;;;;;;7.43;4.00;;;;;;;18.62;41.99;101553.50;5064326;28;20423;-74
2022/05/12 03:33:46;;;;;;;7.57;4.10;;;;;;;18.67;41.86;101552.88;5065427;28;20421;-75
2022/05/12 03:36:15;;;;;;;7.23;3.90;;;;;;;18.69;42.09;101558.84;5065031;28;21169;-75
2022/05/12 03:38:43;;;;;;;5.53;3.70;;;;;;;18.78;41.62;101563.03;5064906;28;20926;-75
2022/05/12 03:41:11;;;;;;;9.38;3.92;;;;;;;18.88;41.24;101559.97;5051398;28;20417;-74
2022/05/12 03:46:23;;;;;;;6.37;4.07;;;;;;;19.02;40.98;101564.31;5039949;28;20498;-75
2022/05/12 03:48:51;;;;;;;6.40;3.90;;;;;;;19.19;40.71;101562.06;5051957;28;20433;-75
2022/05/12 03:51:18;;;;;;;9.40;3.90;;;;;;;19.36;40.40;101565.16;5051300;28;20806;-75
2022/05/12 03:53:46;;;;;;;7.68;4.00;;;;;;;19.53;39.95;101562.06;5051684;28;20425;-76
2022/05/12 03:56:13;;;;;;;6.00;3.47;;;;;;;19.67;39.67;101567.19;5051622;28;20412;-73
2022/05/12 03:58:40;;;;;;;7.75;4.18;;;;;;;19.89;39.40;101572.34;5051117;28;20417;-75
2022/05/12 04:01:07;;;;;;;5.80;3.80;;;;;;;20.15;39.04;101578.69;5050922;28;20412;-74
2022/05/12 04:03:35;;;;;;;9.57;4.00;;;;;;;20.39;38.46;101571.78;5048915;28;20922;-75
2022/05/12 04:06:05;;;;;;;12.83;4.10;;;;;;;20.65;38.74;101578.09;5049767;28;20424;-75
2022/05/12 04:08:32;;;;;;;7.75;4.78;;;;;;;20.91;37.74;101579.81;5050344;28;20432;-75
2022/05/12 04:11:01;;;;;;;11.80;5.13;;;;;;;21.20;37.04;101581.88;5050501;28;20431;-74
2022/05/12 04:13:28;;;;;;;11.05;6.97;;;;;;;21.52;36.39;101578.31;5046365;28;20420;-74
2022/05/12 04:15:55;;;;;;;14.15;8.68;;;;;;;21.82;35.87;101577.59;5049596;28;20435;-76
2022/05/12 04:18:22;;;;;;;8.80;6.40;;;;;;;22.19;35.22;101580.31;5051177;28;21809;-75
2022/05/12 04:20:49;;;;;;;11.95;5.30;;;;;;;22.56;34.27;101575.69;5049583;28;20457;-75
2022/05/12 04:23:16;;;;;;;8.75;4.40;;;;;;;22.91;33.53;101573.09;5051156;28;20914;-75
2022/05/12 04:25:43;;;;;;;9.13;4.40;;;;;;;23.42;32.88;101572.72;5049916;28;20428;-75
2022/05/12 04:28:11;;;;;;;6.07;4.00;;;;;;;23.86;32.00;101578.63;5049024;28;20429;-76
2022/05/12 04:30:38;;;;;;;9.93;4.07;;;;;;;24.43;31.29;101580.59;5049065;28;20474;-76
2022/05/12 04:35:50;;;;;;;8.77;6.00;;;;;;;25.77;29.09;101570.09;5042139;28;20431;-77
2022/05/12 04:40:13;;;;;;;7.57;5.20;;;;;;;26.55;27.90;101574.56;5117601;27;20449;-75
2022/05/12 04:42:40;;;;;;;7.05;4.68;;;;;;;26.63;27.74;101579.56;5106431;28;20806;-75
2022/05/12 04:45:09;;;;;;;7.95;5.00;;;;;;;27.18;27.69;101577.59;5105670;28;20430;-74
2022/05/12 04:47:38;;;;;;;7.45;3.63;;;;;;;27.77;26.44;101569.28;5107544;28;20856;-75
2022/05/12 04:50:06;;;;;;;11.82;3.95;;;;;;;28.50;25.82;101573.91;5102839;28;20432;-74
2022/05/12 04:52:33;;;;;;;5.18;2.97;;;;;;;28.97;25.11;101578.38;5107035;28;20417;-74
2022/05/12 04:55:00;;;;;;;5.30;3.08;;;;;;;29.40;24.34;101580.00;5105978;28;20779;-74
2022/05/12 04:57:35;;;;;;;5.68;3.40;;;;;;;29.53;24.34;101576.69;5105069;27;20424;-75
2022/05/12 05:00:02;;;;;;;8.20;3.40;;;;;;;29.96;24.03;101573.56;5102958;28;21202;-75
2022/05/12 05:02:28;;;;;;;7.57;3.33;;;;;;;30.49;23.46;101573.88;5109639;28;20415;-75
2022/05/12 05:04:55;;;;;;;4.78;3.20;;;;;;;31.05;22.78;101575.38;5106943;28;20412;-77
2022/05/12 05:07:26;;;;;;;7.88;3.13;;;;;;;31.32;22.62;101577.59;5106422;28;20448;-74
2022/05/12 05:09:53;;;;;;;7.13;3.15;;;;;;;31.68;21.92;101574.50;5106856;28;20906;-75
2022/05/12 05:12:20;;;;;;;6.60;3.47;;;;;;;31.97;21.59;101571.66;5105701;28;20450;-77
2022/05/12 05:14:48;;;;;;;7.28;3.90;;;;;;;32.19;21.30;101576.59;5106445;28;20434;-75
2022/05/12 05:17:15;;;;;;;6.32;4.43;;;;;;;32.45;21.06;101572.69;5105588;28;20416;-75
2022/05/12 05:19:42;;;;;;;7.55;4.25;;;;;;;32.75;20.45;101574.16;5105483;28;20428;-76
2022/05/12 05:22:09;;;;;;;8.98;4.10;;;;;;;33.03;20.75;101569.56;5106425;28;20423;-76
2022/05/12 05:24:37;;;;;;;12.05;4.00;;;;;;;33.41;20.33;101568.66;5103913;28;20802;-76
2022/05/12 05:27:06;;;;;;;7.10;3.30;;;;;;;33.69;20.00;101574.97;5105358;28;20493;-75
2022/05/12 05:29:33;;;;;;;4.17;2.70;;;;;;;33.97;19.47;101577.72;5106832;28;20405;-77
2022/05/12 05:32:01;;;;;;;5.25;3.03;;;;;;;34.36;19.16;101573.56;5103233;28;20412;-76
2022/05/12 05:34:29;;;;;;;4.07;3.10;;;;;;;34.32;19.33;101576.13;5105054;28;20408;-76
2022/05/12 05:36:56;;;;;;;8.43;3.53;;;;;;;34.59;18.97;101571.66;5105044;28;20499;-76
2022/05/12 05:39:26;;;;;;;4.30;2.90;;;;;;;35.10;18.50;101575.91;5102217;28;20511;-76
2022/05/12 05:41:57;;;;;;;7.50;3.05;;;;;;;35.32;18.49;101574.25;5104573;28;20781;-76
2022/05/12 05:44:24;;;;;;;5.75;2.90;;;;;;;35.60;18.24;101577.59;5105134;28;20418;-76
2022/05/12 05:46:51;;;;;;;7.82;3.10;;;;;;;35.93;17.76;101580.81;5106156;28;20411;-75
2022/05/12 05:49:19;;;;;;;7.47;3.22;;;;;;;36.31;17.67;101580.22;5105736;28;20400;-76
2022/05/12 05:54:31;;;;;;;5.53;2.60;;;;;;;37.04;16.86;101571.22;5091354;28;20458;-75
2022/05/12 05:56:58;;;;;;;8.75;3.50;;;;;;;37.33;16.58;101566.94;5092393;28;20819;-76
2022/05/12 05:59:25;;;;;;;6.10;2.70;;;;;;;37.36;16.35;101579.25;5090517;28;20429;-77
2022/05/12 06:01:52;;;;;;;6.93;2.65;;;;;;;37.70;15.71;101580.28;5091299;28;20504;-77
2022/05/12 06:04:20;;;;;;;3.53;2.78;;;;;;;37.93;15.51;101583.53;5092558;28;20405;-76
2022/05/12 06:06:47;;;;;;;3.92;2.83;;;;;;;38.01;15.45;101583.50;5092531;28;20406;-76
2022/05/12 06:09:14;;;;;;;4.50;2.80;;;;;;;38.22;15.23;101582.69;5087759;28;20910;-76
2022/05/12 06:11:43;;;;;;;4.15;2.78;;;;;;;38.31;15.48;101577.09;5089361;28;20416;-76
2022/05/12 06:14:10;;;;;;;4.35;2.70;;;;;;;38.33;15.45;101588.66;5092403;28;20405;-76
2022/05/12 06:16:37;;;;;;;4.93;3.10;;;;;;;38.03;16.58;101583.97;5092455;28;20401;-76
2022/05/12 06:19:04;;;;;;;4.90;3.00;;;;;;;38.13;16.35;101582.78;5090985;28;20447;-76
2022/05/12 06:21:35;;;;;;;4.25;2.90;;;;;;;38.28;16.35;101578.56;5092265;28;20401;-76
2022/05/12 06:24:02;;;;;;;4.97;3.10;;;;;;;37.86;17.15;101579.34;5090682;28;20820;-76
2022/05/12 06:26:29;;;;;;;5.18;3.03;;;;;;;38.02;16.61;101592.59;5090526;28;20847;-75
2022/05/12 06:28:58;;;;;;;4.75;3.00;;;;;;;37.26;17.98;101577.69;5089061;28;20412;-75
2022/05/12 06:31:29;;;;;;;7.57;3.42;;;;;;;37.27;17.30;101579.28;5086924;28;20461;-77
2022/05/12 06:33:57;;;;;;;5.28;3.10;;;;;;;36.79;18.33;101591.44;5083132;28;20425;-78
2022/05/12 06:36:25;;;;;;;3.85;3.10;;;;;;;36.01;19.06;101587.47;5086115;28;20409;-77
2022/05/12 06:38:53;;;;;;;6.97;3.17;;;;;;;36.06;18.73;101586.50;5084862;28;20433;-76
2022/05/12 06:41:20;;;;;;;4.40;3.10;;;;;;;36.00;18.54;101588.63;5086211;28;20485;-77
2022/05/12 06:43:47;;;;;;;4.65;3.00;;;;;;;35.61;18.94;101596.59;5086172;28;20417;-78
2022/05/12 06:46:16;;;;;;;5.43;2.97;;;;;;;34.75;19.72;101591.41;5085551;28;20417;-76
2022/05/12 06:48:43;;;;;;;4.60;2.80;;;;;;;34.74;19.75;101587.84;5086175;28;20417;-79
2022/05/12 06:51:11;;;;;;;3.75;2.95;;;;;;;34.41;20.52;101593.56;5085973;28;20412;-77
2022/05/12 06:53:38;;;;;;;5.85;3.28;;;;;;;34.05;20.81;101587.97;5085336;28;20421;-77
2022/05/12 06:56:08;;;;;;;5.45;3.42;;;;;;;34.08;20.57;101588.19;5085466;28;20409;-75
2022/05/12 06:58:35;;;;;;;4.28;3.20;;;;;;;33.82;21.15;101587.13;5084908;28;20414;-79
2022/05/12 07:01:02;;;;;;;4.18;2.85;;;;;;;33.82;21.05;101585.19;5084815;28;20424;-77
2022/05/12 07:03:29;;;;;;;4.80;3.00;;;;;;;34.13;20.84;101576.25;5085025;28;20413;-76
2022/05/12 07:05:57;;;;;;;7.63;3.33;;;;;;;33.89;21.20;101582.03;5080997;28;20822;-77
2022/05/12 07:08:25;;;;;;;3.77;2.97;;;;;;;32.95;22.14;101573.84;5085973;28;20424;-76
2022/05/12 07:10:52;;;;;;;4.28;2.95;;;;;;;32.39;22.70;101574.69;5085905;28;20419;-75
2022/05/12 07:13:21;;;;;;;4.38;3.20;;;;;;;31.39;23.90;101580.00;5084932;28;20409;-76
2022/05/12 07:15:50;;;;;;;7.55;3.05;;;;;;;30.73;24.67;101587.66;5085696;28;20409;-76
2022/05/12 07:18:18;;;;;;;5.53;3.10;;;;;;;30.82;24.96;101582.38;5085249;28;20417;-76
2022/05/12 07:29:00;;;;;;;5.47;3.10;;;;;;;28.64;28.03;101595.25;5085845;28;20404;-77
2022/05/12 07:31:27;;;;;;;6.32;3.80;;;;;;;28.71;27.78;101599.34;5085817;28;20487;-76
2022/05/12 07:33:54;;;;;;;6.13;3.47;;;;;;;28.50;28.08;101589.47;5084441;28;20899;-74
2022/05/12 07:36:25;;;;;;;4.00;3.20;;;;;;;28.55;28.46;101586.78;5084139;28;20417;-80
2022/05/12 07:38:52;;;;;;;5.00;3.53;;;;;;;28.50;28.75;101586.75;5084162;28;20425;-76
2022/05/12 07:41:20;;;;;;;5.93;3.70;;;;;;;28.26;29.45;101587.22;5084803;28;20394;-77
2022/05/12 07:43:48;;;;;;;6.80;3.80;;;;;;;28.06;29.81;101587.16;5085594;28;20423;-77
2022/05/12 07:46:19;;;;;;;5.78;3.63;;;;;;;28.03;29.46;101581.13;5084695;28;20409;-76
2022/05/12 07:48:46;;;;;;;5.15;3.63;;;;;;;27.72;30.03;101582.88;5083062;28;20405;-77
2022/05/12 07:51:14;;;;;;;4.93;3.47;;;;;;;27.92;29.78;101582.19;5084725;28;20898;-77
2022/05/12 07:53:41;;;;;;;5.55;3.25;;;;;;;28.03;29.69;101585.78;5082220;28;20551;-77
2022/05/12 07:56:10;;;;;;;5.60;3.50;;;;;;;27.88;29.46;101586.50;5084344;28;20492;-77
2022/05/12 07:58:37;;;;;;;4.72;3.80;;;;;;;27.48;30.36;101595.25;5085254;28;20526;-75
2022/05/12 08:01:05;;;;;;;9.52;3.70;;;;;;;27.51;30.24;101590.09;5083432;28;20429;-77
2022/05/12 08:03:34;;;;;;;6.38;3.72;;;;;;;27.12;30.86;101586.78;5084986;28;20442;-77
2022/05/12 08:06:01;;;;;;;6.20;3.72;;;;;;;27.21;30.77;101586.06;5083538;28;20694;-78
2022/05/12 08:08:29;;;;;;;5.63;3.90;;;;;;;27.03;30.58;101592.72;5084021;28;20409;-76
2022/05/12 08:10:56;;;;;;;5.65;3.40;;;;;;;26.91;31.20;101583.91;5083926;28;20405;-76
2022/05/12 08:13:23;;;;;;;5.85;3.55;;;;;;;27.17;30.83;101581.38;5084108;28;20768;-77
2022/05/12 08:15:53;;;;;;;6.65;3.75;;;;;;;27.27;30.66;101579.59;5082426;28;20433;-77
2022/05/12 08:18:22;;;;;;;6.78;3.42;;;;;;;27.15;30.66;101580.84;5084384;28;20416;-77
2022/05/12 08:20:51;;;;;;;6.33;3.80;;;;;;;27.27;30.74;101579.59;5081797;28;20513;-79
2022/05/12 08:23:18;;;;;;;4.53;3.38;;;;;;;27.20;31.06;101583.59;5081989;28;20421;-75
2022/05/12 08:25:46;;;;;;;4.20;3.30;;;;;;;27.34;30.33;101581.28;5079620;28;20929;-75
2022/05/12 08:28:14;;;;;;;4.82;3.67;;;;;;;27.70;29.96;101574.16;5083656;28;20444;-77
2022/05/12 08:30:42;;;;;;;4.30;2.73;;;;;;;27.86;28.27;101575.06;5081671;28;20425;-74
2022/05/12 08:33:09;;;;;;;4.72;3.40;;;;;;;27.83;29.70;101568.22;5083563;28;20844;-74
2022/05/12 08:35:36;;;;;;;9.52;3.70;;;;;;;27.82;29.83;101579.38;5083358;28;20448;-75
2022/05/12 08:38:04;;;;;;;6.63;3.30;;;;;;;27.79;29.78;101571.75;5083575;28;20434;-75
2022/05/12 08:40:41;;;;;;;6.50;3.47;;;;;;;27.93;29.96;101561.19;5081563;28;21013;-78
2022/05/12 08:43:14;;;;;;;6.63;3.60;;;;;;;28.04;30.03;101562.91;5081360;28;20944;-75
2022/05/12 08:45:42;;;;;;;4.95;3.58;;;;;;;28.07;29.37;101554.16;5087880;28;20419;-76
2022/05/12 08:48:12;;;;;;;4.53;3.10;;;;;;;28.05;28.60;101561.00;5085709;28;20425;-77
2022/05/12 08:50:40;;;;;;;5.55;2.97;;;;;;;27.95;28.81;101557.13;5079841;28;20902;-77
2022/05/12 08:53:13;;;;;;;5.75;3.30;;;;;;;28.20;29.47;101550.97;5084830;28;20440;-78
2022/05/12 08:55:46;;;;;;;5.90;3.25;;;;;;;28.35;28.91;101552.88;5082519;28;20505;-75
2022/05/12 08:58:20;;;;;;;6.90;3.20;;;;;;;28.15;29.46;101558.31;5083013;28;20405;-77
2022/05/12 09:00:56;;;;;;;6.07;3.47;;;;;;;28.15;29.81;101558.31;5080373;28;20547;-77
2022/05/12 09:03:34;;;;;;;4.30;3.30;;;;;;;28.26;29.44;101553.69;5082811;28;20899;-78
2022/05/12 09:06:03;;;;;;;7.15;3.50;;;;;;;28.35;28.32;101554.81;5083284;28;20466;-78
2022/05/12 09:08:44;;;;;;;6.88;3.50;;;;;;;28.49;28.41;101557.84;5084155;28;20906;-78
2022/05/12 09:11:19;;;;;;;4.35;2.88;;;;;;;28.33;27.19;101555.06;5080803;28;20423;-75
2022/05/12 09:13:49;;;;;;;3.40;3.00;;;;;;;28.45;27.99;101554.00;5083200;28;20425;-78
2022/05/12 09:16:19;;;;;;;5.30;3.15;;;;;;;28.32;28.45;101556.16;5079316;28;20832;-77
2022/05/12 09:18:47;;;;;;;5.07;2.60;;;;;;;28.32;26.82;101550.69;5083156;28;20494;-74
2022/05/12 09:21:16;;;;;;;4.97;2.80;;;;;;;28.42;27.05;101549.91;5082703;28;20429;-74
2022/05/12 09:23:45;;;;;;;5.10;2.90;;;;;;;28.42;26.96;101550.72;5086296;28;20405;-74
2022/05/12 09:26:36;;;;;;;6.90;3.15;;;;;;;28.36;26.59;101545.53;5085985;28;20775;-75
2022/05/12 09:29:14;;;;;;;4.32;2.55;;;;;;;28.55;26.11;101543.16;5088117;28;20420;-76
2022/05/12 09:31:42;;;;;;;4.95;2.83;;;;;;;28.53;26.14;101542.56;5085917;28;20446;-75
2022/05/12 09:34:27;;;;;;;3.67;2.53;;;;;;;28.44;25.98;101539.56;5086981;28;20405;-76
2022/05/12 09:36:55;;;;;;;4.25;2.60;;;;;;;28.51;25.96;101536.56;5085727;28;20482;-75
2022/05/12 09:39:38;;;;;;;4.50;2.60;;;;;;;28.60;25.83;101534.97;5085254;28;20966;-74
2022/05/12 09:42:07;;;;;;;4.77;3.00;;;;;;;28.81;25.62;101524.06;5087370;28;20809;-76
2022/05/12 09:44:34;;;;;;;4.55;2.33;;;;;;;28.83;25.23;101521.88;5086301;28;20409;-77
2022/05/12 09:47:06;;;;;;;3.07;2.67;;;;;;;28.92;25.29;101520.25;5086078;28;20424;-77
2022/05/12 09:49:38;;;;;;;2.78;2.55;;;;;;;28.78;25.17;101522.69;5086867;28;20782;-77
2022/05/12 09:52:31;;;;;;;4.55;2.75;;;;;;;28.89;24.64;101518.06;5081530;28;20427;-75
2022/05/12 09:55:18;;;;;;;4.00;2.55;;;;;;;28.98;24.16;101506.31;5086851;28;20899;-77
2022/05/12 09:57:49;;;;;;;4.47;2.65;;;;;;;28.92;24.57;101512.06;5084027;28;20910;-74
2022/05/12 10:00:38;;;;;;;3.83;2.60;;;;;;;29.12;24.18;101508.47;5083762;28;20429;-74
2022/05/12 10:08:46;;;;;;;5.13;2.60;;;;;;;29.55;23.30;101496.09;5084150;28;20763;-75
2022/05/12 10:11:15;;;;;;;4.57;2.50;;;;;;;29.63;23.67;101489.22;5085463;28;20432;-78
2022/05/12 10:13:47;;;;;;;6.55;2.70;;;;;;;29.62;23.27;101486.78;5084942;28;20424;-75
2022/05/12 10:16:19;;;;;;;4.70;2.60;;;;;;;29.58;23.05;101486.50;5085364;28;20425;-76
2022/05/12 10:18:50;;;;;;;4.57;2.30;;;;;;;29.69;22.69;101479.09;5088579;28;20427;-73
2022/05/12 10:21:22;;;;;;;3.80;2.25;;;;;;;29.50;22.63;101489.84;5085884;28;20487;-72
2022/05/12 10:24:01;;;;;;;3.30;2.30;;;;;;;29.59;22.33;101482.69;5089068;28;20401;-75
2022/05/12 10:26:38;;;;;;;4.32;2.30;;;;;;;29.15;22.20;101478.75;5091217;28;20462;-73
2022/05/12 10:29:14;;;;;;;3.67;2.20;;;;;;;29.12;23.05;101479.25;5090846;28;20461;-72
2022/05/12 10:31:51;;;;;;;4.72;2.13;;;;;;;29.18;21.86;101471.91;5096633;28;20415;-73
2022/05/12 10:34:30;;;;;;;4.78;2.50;;;;;;;29.19;22.14;101468.09;5112056;28;20410;-72
2022/05/12 10:37:05;;;;;;;5.57;2.30;;;;;;;29.05;22.90;101467.81;5095891;28;20425;-72
2022/05/12 10:39:42;;;;;;;2.90;2.20;;;;;;;29.25;23.24;101468.88;5092384;28;20409;-72
2022/05/12 10:42:25;;;;;;;3.15;2.28;;;;;;;29.26;22.64;101459.59;5090767;28;20409;-73
2022/05/12 10:45:10;;;;;;;3.15;2.20;;;;;;;29.16;23.21;101457.72;5088641;28;20413;-72
2022/05/12 10:47:53;;;;;;;3.00;2.20;;;;;;;29.05;23.52;101456.09;5104803;28;20853;-74
2022/05/12 10:50:25;;;;;;;2.50;2.20;;;;;;;28.86;23.29;101453.09;5088946;28;20469;-73
2022/05/12 10:52:59;;;;;;;3.00;2.60;;;;;;;28.85;23.80;101451.50;5101867;28;20399;-72
2022/05/12 10:55:31;;;;;;;2.60;2.10;;;;;;;28.92;23.16;101452.03;5111653;28;20399;-71
2022/05/12 10:58:19;;;;;;;4.13;2.47;;;;;;;28.85;23.80;101446.03;5090740;28;20420;-72
2022/05/12 11:01:05;;;;;;;2.47;2.28;;;;;;;28.76;23.48;101445.75;5090183;28;20486;-71
2022/05/12 11:03:37;;;;;;;3.22;2.60;;;;;;;28.57;24.05;101443.56;5082999;28;20409;-75
2022/05/12 11:06:07;;;;;;;2.95;2.40;;;;;;;28.86;24.38;101439.47;5085088;28;20507;-74
2022/05/12 11:08:37;;;;;;;3.00;2.30;;;;;;;28.84;24.12;101438.91;5084328;28;20416;-75
2022/05/12 11:11:09;;;;;;;4.40;2.80;;;;;;;28.92;23.97;101425.53;5085573;28;20413;-72
2022/05/12 11:13:44;;;;;;;4.10;2.53;;;;;;;28.73;24.12;101429.94;5084392;28;21043;-73
2022/05/12 11:16:15;;;;;;;5.22;2.50;;;;;;;29.05;23.84;101435.06;5082705;28;20428;-73
2022/05/12 11:18:49;;;;;;;3.60;2.27;;;;;;;29.23;23.44;101424.66;5082046;28;20911;-74
2022/05/12 11:21:19;;;;;;;2.88;2.33;;;;;;;29.29;23.41;101418.06;5082890;28;20802;-73
2022/05/12 11:24:06;;;;;;;2.70;2.35;;;;;;;29.38;23.07;101412.84;5076385;28;20421;-71
2022/05/12 11:26:49;;;;;;;3.00;2.20;;;;;;;29.44;23.44;101404.38;5085242;28;20502;-72
2022/05/12 11:29:44;;;;;;;3.38;2.22;;;;;;;29.65;23.72;101413.25;5083619;28;20429;-72
2022/05/12 11:32:22;;;;;;;3.75;2.30;;;;;;;29.58;23.08;101406.47;5085182;28;20494;-72
2022/05/12 11:34:54;;;;;;;3.25;2.10;;;;;;;29.44;22.75;101400.81;5083127;28;20818;-73
2022/05/12 11:37:31;;;;;;;6.17;2.40;;;;;;;29.43;22.99;101400.00;5088751;28;20426;-71
2022/05/12 11:39:59;;;;;;;3.67;2.30;;;;;;;29.42;22.84;101400.28;5087675;28;20425;-73
2022/05/12 11:42:28;;;;;;;4.30;2.50;;;;;;;29.49;23.35;101390.66;5083182;28;20444;-73
2022/05/12 11:45:02;;;;;;;4.45;2.30;;;;;;;29.45;22.99;101391.53;5083594;28;20425;-72
2022/05/12 11:47:56;;;;;;;3.67;2.35;;;;;;;29.44;23.67;101389.88;5083922;28;20482;-72
2022/05/12 11:50:38;;;;;;;6.15;2.58;;;;;;;29.47;23.59;101386.59;5082974;28;20428;-72
2022/05/12 11:53:14;;;;;;;3.83;2.40;;;;;;;29.23;23.03;101387.25;5088900;28;20420;-74
2022/05/12 11:55:58;;;;;;;3.47;2.47;;;;;;;29.14;23.21;101376.09;5083462;28;20968;-72
2022/05/12 11:58:40;;;;;;;3.33;2.30;;;;;;;29.28;23.17;101372.75;5082258;28;20421;-72
2022/05/12 12:01:11;;;;;;;4.55;2.53;;;;;;;29.36;23.35;101372.16;5082699;28;20429;-72
2022/05/12 12:03:50;;;;;;;3.60;2.35;;;;;;;29.62;23.27;101366.56;5082672;28;20851;-71
2022/05/12 12:06:38;;;;;;;2.72;2.20;;;;;;;29.46;22.19;101374.84;5083990;28;20411;-72